sensor_id;sensor_type;location;lat;lon;timestamp;noise_LAeq;noise_LA_min;noise_LA_max;noise_LA01;noise_LA95
68279;Laerm;55108;51.790;10.960;2023-05-19T00:01:33;34.35;28.85;45.99;;
68279;Laerm;55108;51.790;10.960;2023-05-19T00:04:01;31.01;26.78;37.71;;
68279;Laerm;55108;51.790;10.960;2023-05-19T00:06:28;63.49;30.19;83.10;;
68279;Laerm;55108;51.790;10.960;2023-05-19T00:08:56;57.86;28.73;76.00;;
68279;Laerm;55108;51.790;10.960;2023-05-19T00:11:22;32.83;28.54;38.46;;
68279;Laerm;55108;51.790;10.960;2023-05-19T00:13:47;32.01;27.63;40.08;;
68279;Laerm;55108;51.790;10.960;2023-05-19T00:16:14;57.12;27.88;75.14;;
68279;Laerm;55108;51.790;10.960;2023-05-19T00:18:40;30.77;26.66;36.37;;
68279;Laerm;55108;51.790;10.960;2023-05-19T00:21:05;53.74;26.55;71.67;;
68279;Laerm;55108;51.790;10.960;2023-05-19T00:23:31;33.70;27.31;45.50;;
68279;Laerm;55108;51.790;10.960;2023-05-19T00:25:56;35.43;26.53;47.64;;
68279;Laerm;55108;51.790;10.960;2023-05-19T00:28:21;55.20;26.52;76.99;;
68279;Laerm;55108;51.790;10.960;2023-05-19T00:30:46;54.47;26.83;77.35;;
68279;Laerm;55108;51.790;10.960;2023-05-19T00:33:11;28.49;26.58;32.28;;
68279;Laerm;55108;51.790;10.960;2023-05-19T00:35:36;32.25;27.13;47.57;;
68279;Laerm;55108;51.790;10.960;2023-05-19T00:38:01;57.23;28.58;76.23;;
68279;Laerm;55108;51.790;10.960;2023-05-19T00:40:26;61.33;29.82;78.17;;
68279;Laerm;55108;51.790;10.960;2023-05-19T00:42:53;30.58;26.91;43.41;;
68279;Laerm;55108;51.790;10.960;2023-05-19T00:45:18;28.83;26.44;35.74;;
68279;Laerm;55108;51.790;10.960;2023-05-19T00:47:43;28.27;26.01;33.02;;
68279;Laerm;55108;51.790;10.960;2023-05-19T00:50:08;27.52;25.63;32.17;;
68279;Laerm;55108;51.790;10.960;2023-05-19T00:52:33;49.42;25.74;67.21;;
68279;Laerm;55108;51.790;10.960;2023-05-19T00:54:59;63.17;27.33;81.20;;
68279;Laerm;55108;51.790;10.960;2023-05-19T00:57:24;59.43;28.17;76.74;;
68279;Laerm;55108;51.790;10.960;2023-05-19T00:59:50;59.72;27.89;77.69;;
68279;Laerm;55108;51.790;10.960;2023-05-19T01:02:16;32.14;27.40;43.89;;
68279;Laerm;55108;51.790;10.960;2023-05-19T01:04:41;28.81;26.11;34.70;;
68279;Laerm;55108;51.790;10.960;2023-05-19T01:07:07;29.64;26.74;35.55;;
68279;Laerm;55108;51.790;10.960;2023-05-19T01:09:34;31.05;27.45;37.43;;
68279;Laerm;55108;51.790;10.960;2023-05-19T01:11:59;58.93;28.01;78.62;;
68279;Laerm;55108;51.790;10.960;2023-05-19T01:14:25;34.68;27.49;61.30;;
68279;Laerm;55108;51.790;10.960;2023-05-19T01:17:02;32.90;27.32;55.17;;
68279;Laerm;55108;51.790;10.960;2023-05-19T01:25:07;53.46;26.97;71.98;;
68279;Laerm;55108;51.790;10.960;2023-05-19T01:33:03;37.15;28.03;53.21;;
68279;Laerm;55108;51.790;10.960;2023-05-19T01:35:30;34.61;27.69;44.24;;
68279;Laerm;55108;51.790;10.960;2023-05-19T01:37:57;55.39;27.60;73.23;;
68279;Laerm;55108;51.790;10.960;2023-05-19T01:40:23;38.58;27.52;54.58;;
68279;Laerm;55108;51.790;10.960;2023-05-19T01:42:49;62.97;27.27;83.60;;
68279;Laerm;55108;51.790;10.960;2023-05-19T01:45:16;32.86;29.06;43.72;;
68279;Laerm;55108;51.790;10.960;2023-05-19T01:47:42;57.92;28.20;78.14;;
68279;Laerm;55108;51.790;10.960;2023-05-19T01:50:08;37.53;27.41;60.55;;
68279;Laerm;55108;51.790;10.960;2023-05-19T01:52:33;37.94;27.58;62.35;;
68279;Laerm;55108;51.790;10.960;2023-05-19T01:54:59;34.65;28.27;53.02;;
68279;Laerm;55108;51.790;10.960;2023-05-19T02:00:01;62.79;28.71;77.89;;
68279;Laerm;55108;51.790;10.960;2023-05-19T02:04:59;37.59;27.45;56.33;;
68279;Laerm;55108;51.790;10.960;2023-05-19T02:07:30;56.26;27.99;74.35;;
68279;Laerm;55108;51.790;10.960;2023-05-19T02:12:38;43.39;30.37;57.90;;
68279;Laerm;55108;51.790;10.960;2023-05-19T02:17:31;55.62;29.29;74.50;;
68279;Laerm;55108;51.790;10.960;2023-05-19T02:19:57;62.68;30.36;78.80;;
68279;Laerm;55108;51.790;10.960;2023-05-19T02:22:22;44.99;29.26;59.61;;
68279;Laerm;55108;51.790;10.960;2023-05-19T02:24:47;65.38;32.30;87.42;;
68279;Laerm;55108;51.790;10.960;2023-05-19T02:27:15;53.47;31.78;69.54;;
68279;Laerm;55108;51.790;10.960;2023-05-19T02:29:40;60.19;33.65;77.48;;
68279;Laerm;55108;51.790;10.960;2023-05-19T02:32:06;48.49;31.63;65.27;;
68279;Laerm;55108;51.790;10.960;2023-05-19T02:34:31;45.28;31.35;60.46;;
68279;Laerm;55108;51.790;10.960;2023-05-19T02:36:56;60.89;32.74;79.55;;
68279;Laerm;55108;51.790;10.960;2023-05-19T02:39:21;52.64;32.17;69.51;;
68279;Laerm;55108;51.790;10.960;2023-05-19T02:41:46;58.20;33.87;76.37;;
68279;Laerm;55108;51.790;10.960;2023-05-19T02:44:11;55.96;34.42;72.75;;
68279;Laerm;55108;51.790;10.960;2023-05-19T02:46:36;50.50;34.08;66.63;;
68279;Laerm;55108;51.790;10.960;2023-05-19T02:49:02;51.43;33.01;64.48;;
68279;Laerm;55108;51.790;10.960;2023-05-19T02:51:27;58.00;34.15;76.25;;
68279;Laerm;55108;51.790;10.960;2023-05-19T02:53:52;56.89;35.54;74.69;;
68279;Laerm;55108;51.790;10.960;2023-05-19T02:56:17;64.17;36.93;81.35;;
68279;Laerm;55108;51.790;10.960;2023-05-19T02:58:42;56.04;33.40;71.98;;
68279;Laerm;55108;51.790;10.960;2023-05-19T03:01:07;57.45;32.99;75.28;;
68279;Laerm;55108;51.790;10.960;2023-05-19T03:03:33;61.09;35.07;79.01;;
68279;Laerm;55108;51.790;10.960;2023-05-19T03:05:58;62.90;34.78;77.72;;
68279;Laerm;55108;51.790;10.960;2023-05-19T03:08:23;60.58;37.84;75.19;;
68279;Laerm;55108;51.790;10.960;2023-05-19T03:10:48;51.76;36.39;64.03;;
68279;Laerm;55108;51.790;10.960;2023-05-19T03:13:13;66.15;35.80;90.84;;
68279;Laerm;55108;51.790;10.960;2023-05-19T03:15:38;60.11;35.66;77.46;;
68279;Laerm;55108;51.790;10.960;2023-05-19T03:18:04;57.62;37.19;71.59;;
68279;Laerm;55108;51.790;10.960;2023-05-19T03:20:29;60.41;36.74;77.42;;
68279;Laerm;55108;51.790;10.960;2023-05-19T03:22:54;58.68;36.85;76.15;;
68279;Laerm;55108;51.790;10.960;2023-05-19T03:25:19;63.33;36.41;79.03;;
68279;Laerm;55108;51.790;10.960;2023-05-19T03:27:45;64.65;38.55;81.85;;
68279;Laerm;55108;51.790;10.960;2023-05-19T03:30:10;64.11;36.13;80.41;;
68279;Laerm;55108;51.790;10.960;2023-05-19T03:32:35;56.06;37.09;74.01;;
68279;Laerm;55108;51.790;10.960;2023-05-19T03:35:04;61.88;35.69;74.64;;
68279;Laerm;55108;51.790;10.960;2023-05-19T03:37:29;63.33;36.80;79.00;;
68279;Laerm;55108;51.790;10.960;2023-05-19T03:39:55;64.11;37.76;78.73;;
68279;Laerm;55108;51.790;10.960;2023-05-19T03:42:21;66.43;38.33;82.30;;
68279;Laerm;55108;51.790;10.960;2023-05-19T03:44:46;61.35;34.57;75.73;;
68279;Laerm;55108;51.790;10.960;2023-05-19T03:47:12;62.43;34.66;78.65;;
68279;Laerm;55108;51.790;10.960;2023-05-19T03:49:37;63.60;36.85;80.80;;
68279;Laerm;55108;51.790;10.960;2023-05-19T03:52:02;66.54;37.74;80.99;;
68279;Laerm;55108;51.790;10.960;2023-05-19T03:54:27;62.95;35.13;87.54;;
68279;Laerm;55108;51.790;10.960;2023-05-19T03:56:52;62.82;39.26;77.84;;
68279;Laerm;55108;51.790;10.960;2023-05-19T03:59:18;63.71;34.44;77.43;;
68279;Laerm;55108;51.790;10.960;2023-05-19T04:01:43;64.98;34.65;80.93;;
68279;Laerm;55108;51.790;10.960;2023-05-19T04:04:08;58.56;34.20;76.64;;
68279;Laerm;55108;51.790;10.960;2023-05-19T04:06:33;63.63;36.82;81.16;;
68279;Laerm;55108;51.790;10.960;2023-05-19T04:09:00;64.20;36.45;81.33;;
68279;Laerm;55108;51.790;10.960;2023-05-19T04:11:26;68.24;37.91;81.25;;
68279;Laerm;55108;51.790;10.960;2023-05-19T04:13:51;61.09;34.04;78.08;;
68279;Laerm;55108;51.790;10.960;2023-05-19T04:16:16;62.36;35.86;76.78;;
68279;Laerm;55108;51.790;10.960;2023-05-19T04:18:41;59.54;37.49;76.53;;
68279;Laerm;55108;51.790;10.960;2023-05-19T04:21:09;64.03;37.40;81.00;;
68279;Laerm;55108;51.790;10.960;2023-05-19T04:23:34;64.04;36.33;80.83;;
68279;Laerm;55108;51.790;10.960;2023-05-19T04:25:59;66.72;39.95;82.33;;
68279;Laerm;55108;51.790;10.960;2023-05-19T04:28:25;62.72;35.88;76.43;;
68279;Laerm;55108;51.790;10.960;2023-05-19T04:30:51;64.39;37.59;80.19;;
68279;Laerm;55108;51.790;10.960;2023-05-19T04:33:16;57.83;38.21;70.69;;
68279;Laerm;55108;51.790;10.960;2023-05-19T04:35:41;66.76;36.12;82.73;;
68279;Laerm;55108;51.790;10.960;2023-05-19T04:38:08;60.49;36.00;79.67;;
68279;Laerm;55108;51.790;10.960;2023-05-19T04:40:33;64.43;37.64;77.58;;
68279;Laerm;55108;51.790;10.960;2023-05-19T04:42:59;64.02;36.48;81.17;;
68279;Laerm;55108;51.790;10.960;2023-05-19T04:45:25;65.06;35.99;80.59;;
68279;Laerm;55108;51.790;10.960;2023-05-19T04:47:50;66.63;36.28;91.98;;
68279;Laerm;55108;51.790;10.960;2023-05-19T04:50:16;61.82;35.18;77.94;;
68279;Laerm;55108;51.790;10.960;2023-05-19T04:52:41;64.39;36.50;81.66;;
68279;Laerm;55108;51.790;10.960;2023-05-19T04:55:09;65.31;34.90;78.76;;
68279;Laerm;55108;51.790;10.960;2023-05-19T04:57:35;69.37;34.63;84.45;;
68279;Laerm;55108;51.790;10.960;2023-05-19T05:00:01;66.06;39.50;79.02;;
68279;Laerm;55108;51.790;10.960;2023-05-19T05:02:28;65.31;38.18;79.44;;
68279;Laerm;55108;51.790;10.960;2023-05-19T05:04:53;68.12;38.88;84.99;;
68279;Laerm;55108;51.790;10.960;2023-05-19T05:07:20;66.42;40.90;79.20;;
68279;Laerm;55108;51.790;10.960;2023-05-19T05:09:46;67.99;40.25;84.40;;
68279;Laerm;55108;51.790;10.960;2023-05-19T05:12:12;67.39;41.58;81.57;;
68279;Laerm;55108;51.790;10.960;2023-05-19T05:14:38;67.11;39.60;78.23;;
68279;Laerm;55108;51.790;10.960;2023-05-19T05:17:04;63.33;35.81;79.46;;
68279;Laerm;55108;51.790;10.960;2023-05-19T05:19:29;64.14;37.56;79.43;;
68279;Laerm;55108;51.790;10.960;2023-05-19T05:21:54;64.37;36.51;80.00;;
68279;Laerm;55108;51.790;10.960;2023-05-19T05:24:19;68.68;47.95;83.34;;
68279;Laerm;55108;51.790;10.960;2023-05-19T05:26:45;65.39;35.94;79.07;;
68279;Laerm;55108;51.790;10.960;2023-05-19T05:29:10;69.10;37.38;83.97;;
68279;Laerm;55108;51.790;10.960;2023-05-19T05:31:35;65.11;36.05;77.87;;
68279;Laerm;55108;51.790;10.960;2023-05-19T05:34:01;63.99;37.05;75.80;;
68279;Laerm;55108;51.790;10.960;2023-05-19T05:36:26;66.83;39.19;77.72;;
68279;Laerm;55108;51.790;10.960;2023-05-19T05:38:51;64.59;36.94;80.03;;
68279;Laerm;55108;51.790;10.960;2023-05-19T05:41:17;65.85;37.38;80.98;;
68279;Laerm;55108;51.790;10.960;2023-05-19T05:43:42;65.99;38.27;82.26;;
68279;Laerm;55108;51.790;10.960;2023-05-19T05:46:07;64.59;35.04;79.79;;
68279;Laerm;55108;51.790;10.960;2023-05-19T05:48:32;66.31;42.70;78.32;;
68279;Laerm;55108;51.790;10.960;2023-05-19T05:50:57;71.75;45.88;87.18;;
68279;Laerm;55108;51.790;10.960;2023-05-19T05:53:23;66.92;46.55;80.07;;
68279;Laerm;55108;51.790;10.960;2023-05-19T05:55:49;63.92;39.03;78.37;;
68279;Laerm;55108;51.790;10.960;2023-05-19T05:58:14;62.36;36.87;77.52;;
68279;Laerm;55108;51.790;10.960;2023-05-19T06:00:41;67.29;45.09;87.56;;
68279;Laerm;55108;51.790;10.960;2023-05-19T06:03:09;64.14;37.35;82.35;;
68279;Laerm;55108;51.790;10.960;2023-05-19T06:05:35;67.51;45.45;79.86;;
68279;Laerm;55108;51.790;10.960;2023-05-19T06:08:00;63.98;38.18;77.85;;
68279;Laerm;55108;51.790;10.960;2023-05-19T06:10:26;64.67;38.28;76.60;;
68279;Laerm;55108;51.790;10.960;2023-05-19T06:12:51;62.10;37.11;76.40;;
68279;Laerm;55108;51.790;10.960;2023-05-19T06:15:16;65.87;45.89;81.99;;
68279;Laerm;55108;51.790;10.960;2023-05-19T06:17:41;70.01;43.82;80.56;;
68279;Laerm;55108;51.790;10.960;2023-05-19T06:20:07;65.23;42.29;78.90;;
68279;Laerm;55108;51.790;10.960;2023-05-19T06:22:34;68.76;47.92;77.43;;
68279;Laerm;55108;51.790;10.960;2023-05-19T06:25:00;63.67;35.26;78.69;;
68279;Laerm;55108;51.790;10.960;2023-05-19T06:27:25;67.61;46.23;79.98;;
68279;Laerm;55108;51.790;10.960;2023-05-19T06:29:50;67.43;42.54;79.16;;
68279;Laerm;55108;51.790;10.960;2023-05-19T06:32:15;66.68;40.19;78.36;;
68279;Laerm;55108;51.790;10.960;2023-05-19T06:34:40;70.82;50.36;83.28;;
68279;Laerm;55108;51.790;10.960;2023-05-19T06:37:05;67.61;38.26;79.18;;
68279;Laerm;55108;51.790;10.960;2023-05-19T06:39:31;65.03;41.05;78.20;;
68279;Laerm;55108;51.790;10.960;2023-05-19T06:41:56;65.90;43.34;77.66;;
68279;Laerm;55108;51.790;10.960;2023-05-19T06:44:21;66.89;47.42;78.43;;
68279;Laerm;55108;51.790;10.960;2023-05-19T06:46:46;66.55;42.36;78.11;;
68279;Laerm;55108;51.790;10.960;2023-05-19T06:49:11;67.65;43.91;78.89;;
68279;Laerm;55108;51.790;10.960;2023-05-19T06:51:36;68.91;44.16;81.91;;
68279;Laerm;55108;51.790;10.960;2023-05-19T06:54:02;65.50;45.19;77.80;;
68279;Laerm;55108;51.790;10.960;2023-05-19T06:56:27;70.16;44.61;86.37;;
68279;Laerm;55108;51.790;10.960;2023-05-19T06:58:52;67.08;47.54;76.72;;
68279;Laerm;55108;51.790;10.960;2023-05-19T07:01:17;68.28;44.17;77.38;;
68279;Laerm;55108;51.790;10.960;2023-05-19T07:03:42;68.69;42.89;85.44;;
68279;Laerm;55108;51.790;10.960;2023-05-19T07:06:07;67.32;45.95;76.21;;
68279;Laerm;55108;51.790;10.960;2023-05-19T07:08:33;70.52;44.68;84.38;;
68279;Laerm;55108;51.790;10.960;2023-05-19T07:10:59;69.23;47.45;77.95;;
68279;Laerm;55108;51.790;10.960;2023-05-19T07:13:24;68.17;48.50;77.28;;
68279;Laerm;55108;51.790;10.960;2023-05-19T07:15:49;67.57;43.84;81.72;;
68279;Laerm;55108;51.790;10.960;2023-05-19T07:18:16;70.18;49.07;85.56;;
68279;Laerm;55108;51.790;10.960;2023-05-19T07:20:41;69.99;47.31;81.37;;
68279;Laerm;55108;51.790;10.960;2023-05-19T07:23:06;69.63;44.92;81.06;;
68279;Laerm;55108;51.790;10.960;2023-05-19T07:25:31;66.95;41.23;78.85;;
68279;Laerm;55108;51.790;10.960;2023-05-19T07:27:57;68.56;46.61;78.34;;
68279;Laerm;55108;51.790;10.960;2023-05-19T07:30:22;68.84;44.57;78.14;;
68279;Laerm;55108;51.790;10.960;2023-05-19T07:32:47;70.29;51.17;85.02;;
68279;Laerm;55108;51.790;10.960;2023-05-19T07:35:12;68.09;53.06;78.57;;
68279;Laerm;55108;51.790;10.960;2023-05-19T07:37:38;66.79;41.47;77.89;;
68279;Laerm;55108;51.790;10.960;2023-05-19T07:40:03;69.31;48.69;79.92;;
68279;Laerm;55108;51.790;10.960;2023-05-19T07:42:30;66.63;46.50;75.53;;
68279;Laerm;55108;51.790;10.960;2023-05-19T07:44:55;69.36;44.65;79.78;;
68279;Laerm;55108;51.790;10.960;2023-05-19T07:47:20;70.25;51.08;84.62;;
68279;Laerm;55108;51.790;10.960;2023-05-19T07:49:45;68.38;49.95;80.83;;
68279;Laerm;55108;51.790;10.960;2023-05-19T07:52:11;68.45;50.99;78.76;;
68279;Laerm;55108;51.790;10.960;2023-05-19T07:54:36;69.84;49.49;84.20;;
68279;Laerm;55108;51.790;10.960;2023-05-19T07:57:01;69.18;48.24;87.24;;
68279;Laerm;55108;51.790;10.960;2023-05-19T07:59:26;68.12;45.73;80.35;;
68279;Laerm;55108;51.790;10.960;2023-05-19T08:01:51;68.63;43.13;82.55;;
68279;Laerm;55108;51.790;10.960;2023-05-19T08:04:17;69.60;48.98;79.49;;
68279;Laerm;55108;51.790;10.960;2023-05-19T08:06:42;68.21;50.30;79.00;;
68279;Laerm;55108;51.790;10.960;2023-05-19T08:09:08;68.24;50.51;79.50;;
68279;Laerm;55108;51.790;10.960;2023-05-19T08:11:35;68.37;46.16;78.60;;
68279;Laerm;55108;51.790;10.960;2023-05-19T08:14:01;66.72;49.67;77.23;;
68279;Laerm;55108;51.790;10.960;2023-05-19T08:16:26;68.69;47.08;77.93;;
68279;Laerm;55108;51.790;10.960;2023-05-19T08:18:51;69.30;50.56;78.61;;
68279;Laerm;55108;51.790;10.960;2023-05-19T08:21:16;67.39;52.96;85.00;;
68279;Laerm;55108;51.790;10.960;2023-05-19T08:23:41;66.61;50.72;75.68;;
68279;Laerm;55108;51.790;10.960;2023-05-19T08:26:06;68.96;49.87;79.86;;
68279;Laerm;55108;51.790;10.960;2023-05-19T08:28:31;69.13;47.22;80.65;;
68279;Laerm;55108;51.790;10.960;2023-05-19T08:30:57;69.73;51.90;83.18;;
68279;Laerm;55108;51.790;10.960;2023-05-19T08:33:22;67.57;48.08;76.98;;
68279;Laerm;55108;51.790;10.960;2023-05-19T08:35:47;66.37;47.22;75.49;;
68279;Laerm;55108;51.790;10.960;2023-05-19T08:38:12;68.80;46.70;78.70;;
68279;Laerm;55108;51.790;10.960;2023-05-19T08:40:39;67.02;46.11;76.73;;
68279;Laerm;55108;51.790;10.960;2023-05-19T08:43:05;68.20;48.14;75.59;;
68279;Laerm;55108;51.790;10.960;2023-05-19T08:45:30;68.99;51.15;81.72;;
68279;Laerm;55108;51.790;10.960;2023-05-19T08:47:58;67.70;49.64;81.78;;
68279;Laerm;55108;51.790;10.960;2023-05-19T08:50:24;70.28;50.12;84.45;;
68279;Laerm;55108;51.790;10.960;2023-05-19T08:57:50;67.49;57.11;77.58;;
68279;Laerm;55108;51.790;10.960;2023-05-19T09:00:15;65.30;54.18;74.67;;
68279;Laerm;55108;51.790;10.960;2023-05-19T09:02:41;64.57;55.79;80.70;;
68279;Laerm;55108;51.790;10.960;2023-05-19T09:05:07;66.09;53.72;75.39;;
68279;Laerm;55108;51.790;10.960;2023-05-19T09:07:32;69.35;50.62;81.90;;
68279;Laerm;55108;51.790;10.960;2023-05-19T09:10:00;68.39;51.16;79.21;;
68279;Laerm;55108;51.790;10.960;2023-05-19T09:12:25;66.12;53.31;76.00;;
68279;Laerm;55108;51.790;10.960;2023-05-19T09:14:51;69.53;52.70;79.72;;
68279;Laerm;55108;51.790;10.960;2023-05-19T09:17:16;69.81;51.25;86.33;;
68279;Laerm;55108;51.790;10.960;2023-05-19T09:19:43;66.56;56.02;76.21;;
68279;Laerm;55108;51.790;10.960;2023-05-19T09:22:08;64.61;48.51;79.11;;
68279;Laerm;55108;51.790;10.960;2023-05-19T09:24:33;67.62;49.60;75.49;;
68279;Laerm;55108;51.790;10.960;2023-05-19T09:26:58;67.40;48.44;75.22;;
68279;Laerm;55108;51.790;10.960;2023-05-19T09:29:24;69.33;50.94;78.11;;
68279;Laerm;55108;51.790;10.960;2023-05-19T09:31:50;70.10;55.35;81.66;;
68279;Laerm;55108;51.790;10.960;2023-05-19T09:34:16;68.74;53.28;82.64;;
68279;Laerm;55108;51.790;10.960;2023-05-19T09:36:41;68.37;49.74;84.80;;
68279;Laerm;55108;51.790;10.960;2023-05-19T09:39:15;67.86;50.39;77.93;;
68279;Laerm;55108;51.790;10.960;2023-05-19T09:41:41;68.88;47.81;89.50;;
68279;Laerm;55108;51.790;10.960;2023-05-19T09:44:06;66.99;48.08;75.08;;
68279;Laerm;55108;51.790;10.960;2023-05-19T09:46:32;69.71;44.62;82.02;;
68279;Laerm;55108;51.790;10.960;2023-05-19T09:48:59;68.20;49.69;78.55;;
68279;Laerm;55108;51.790;10.960;2023-05-19T09:51:24;67.30;46.10;82.24;;
68279;Laerm;55108;51.790;10.960;2023-05-19T09:53:50;67.99;45.28;77.43;;
68279;Laerm;55108;51.790;10.960;2023-05-19T09:56:16;68.05;50.49;77.77;;
68279;Laerm;55108;51.790;10.960;2023-05-19T09:58:41;67.75;44.53;75.75;;
68279;Laerm;55108;51.790;10.960;2023-05-19T10:01:06;70.29;50.73;82.21;;
68279;Laerm;55108;51.790;10.960;2023-05-19T10:03:32;69.11;48.00;83.42;;
68279;Laerm;55108;51.790;10.960;2023-05-19T10:05:58;67.79;51.43;78.94;;
68279;Laerm;55108;51.790;10.960;2023-05-19T10:08:24;68.31;47.56;77.84;;
68279;Laerm;55108;51.790;10.960;2023-05-19T10:10:51;68.14;48.80;77.48;;
68279;Laerm;55108;51.790;10.960;2023-05-19T10:13:16;67.79;49.72;80.45;;
68279;Laerm;55108;51.790;10.960;2023-05-19T10:15:41;67.89;48.88;80.58;;
68279;Laerm;55108;51.790;10.960;2023-05-19T10:18:07;68.48;50.63;77.82;;
68279;Laerm;55108;51.790;10.960;2023-05-19T10:20:33;69.92;51.19;83.04;;
68279;Laerm;55108;51.790;10.960;2023-05-19T10:22:58;66.51;52.05;79.85;;
68279;Laerm;55108;51.790;10.960;2023-05-19T10:25:24;68.00;47.22;78.54;;
68279;Laerm;55108;51.790;10.960;2023-05-19T10:27:56;69.35;47.80;88.07;;
68279;Laerm;55108;51.790;10.960;2023-05-19T10:30:24;66.50;45.44;75.66;;
68279;Laerm;55108;51.790;10.960;2023-05-19T10:32:50;68.61;49.00;76.60;;
68279;Laerm;55108;51.790;10.960;2023-05-19T10:43:46;69.28;46.72;82.18;;
68279;Laerm;55108;51.790;10.960;2023-05-19T10:46:13;68.15;44.24;76.26;;
68279;Laerm;55108;51.790;10.960;2023-05-19T10:48:38;68.98;49.10;78.35;;
68279;Laerm;55108;51.790;10.960;2023-05-19T10:51:07;68.10;45.54;80.02;;
68279;Laerm;55108;51.790;10.960;2023-05-19T10:53:36;68.85;48.47;78.14;;
68279;Laerm;55108;51.790;10.960;2023-05-19T10:56:04;69.54;48.61;82.92;;
68279;Laerm;55108;51.790;10.960;2023-05-19T10:58:35;66.58;46.04;75.70;;
68279;Laerm;55108;51.790;10.960;2023-05-19T11:01:00;64.72;45.89;75.40;;
68279;Laerm;55108;51.790;10.960;2023-05-19T11:03:25;66.63;47.45;76.80;;
68279;Laerm;55108;51.790;10.960;2023-05-19T11:05:55;69.32;50.68;82.25;;
68279;Laerm;55108;51.790;10.960;2023-05-19T11:08:38;70.14;44.53;87.04;;
68279;Laerm;55108;51.790;10.960;2023-05-19T11:11:14;67.89;48.57;79.18;;
68279;Laerm;55108;51.790;10.960;2023-05-19T11:13:41;68.76;47.11;80.27;;
68279;Laerm;55108;51.790;10.960;2023-05-19T11:16:07;67.63;43.63;81.51;;
68279;Laerm;55108;51.790;10.960;2023-05-19T11:18:32;68.07;47.32;78.71;;
68279;Laerm;55108;51.790;10.960;2023-05-19T11:20:59;64.33;45.54;74.79;;
68279;Laerm;55108;51.790;10.960;2023-05-19T11:23:26;68.77;48.91;77.30;;
68279;Laerm;55108;51.790;10.960;2023-05-19T11:25:51;67.72;47.81;81.88;;
68279;Laerm;55108;51.790;10.960;2023-05-19T11:28:18;68.03;47.91;79.96;;
68279;Laerm;55108;51.790;10.960;2023-05-19T11:30:44;68.50;45.38;80.04;;
68279;Laerm;55108;51.790;10.960;2023-05-19T11:33:10;68.85;50.03;79.37;;
68279;Laerm;55108;51.790;10.960;2023-05-19T11:35:37;68.34;46.04;78.44;;
68279;Laerm;55108;51.790;10.960;2023-05-19T11:38:02;67.48;50.01;76.23;;
68279;Laerm;55108;51.790;10.960;2023-05-19T11:40:28;67.96;47.60;77.55;;
68279;Laerm;55108;51.790;10.960;2023-05-19T11:42:53;67.47;48.48;75.26;;
68279;Laerm;55108;51.790;10.960;2023-05-19T11:45:23;68.18;48.73;80.70;;
68279;Laerm;55108;51.790;10.960;2023-05-19T11:47:48;68.86;44.57;87.43;;
68279;Laerm;55108;51.790;10.960;2023-05-19T11:50:13;69.17;45.46;89.30;;
68279;Laerm;55108;51.790;10.960;2023-05-19T11:52:43;69.49;44.84;83.87;;
68279;Laerm;55108;51.790;10.960;2023-05-19T11:55:08;65.31;43.14;78.44;;
68279;Laerm;55108;51.790;10.960;2023-05-19T11:57:38;68.74;48.81;78.89;;
68279;Laerm;55108;51.790;10.960;2023-05-19T12:00:03;66.79;43.33;76.07;;
68279;Laerm;55108;51.790;10.960;2023-05-19T12:02:33;65.78;41.89;76.38;;
68279;Laerm;55108;51.790;10.960;2023-05-19T12:04:59;70.18;51.90;90.75;;
68279;Laerm;55108;51.790;10.960;2023-05-19T12:07:24;67.03;49.01;75.61;;
68279;Laerm;55108;51.790;10.960;2023-05-19T12:09:50;65.58;41.83;75.08;;
68279;Laerm;55108;51.790;10.960;2023-05-19T12:12:16;68.37;49.91;76.66;;
68279;Laerm;55108;51.790;10.960;2023-05-19T12:14:42;67.19;46.50;80.53;;
68279;Laerm;55108;51.790;10.960;2023-05-19T12:17:11;67.01;44.93;78.64;;
68279;Laerm;55108;51.790;10.960;2023-05-19T12:19:37;71.94;44.98;89.73;;
68279;Laerm;55108;51.790;10.960;2023-05-19T12:22:02;67.50;50.33;78.06;;
68279;Laerm;55108;51.790;10.960;2023-05-19T12:24:27;67.15;52.02;80.35;;
68279;Laerm;55108;51.790;10.960;2023-05-19T12:27:03;67.58;46.51;76.60;;
68279;Laerm;55108;51.790;10.960;2023-05-19T12:29:28;68.85;48.98;84.08;;
68279;Laerm;55108;51.790;10.960;2023-05-19T12:31:55;67.93;43.81;77.74;;
68279;Laerm;55108;51.790;10.960;2023-05-19T12:34:20;71.89;49.80;95.46;;
68279;Laerm;55108;51.790;10.960;2023-05-19T12:36:45;67.90;46.53;79.71;;
68279;Laerm;55108;51.790;10.960;2023-05-19T12:39:11;68.51;48.01;79.38;;
68279;Laerm;55108;51.790;10.960;2023-05-19T12:41:36;67.02;45.86;78.09;;
68279;Laerm;55108;51.790;10.960;2023-05-19T12:44:11;66.24;47.96;76.15;;
68279;Laerm;55108;51.790;10.960;2023-05-19T12:46:38;70.59;52.29;85.66;;
68279;Laerm;55108;51.790;10.960;2023-05-19T12:49:03;68.94;51.31;77.65;;
68279;Laerm;55108;51.790;10.960;2023-05-19T12:51:29;69.49;47.30;82.23;;
68279;Laerm;55108;51.790;10.960;2023-05-19T12:53:54;68.17;48.69;76.49;;
68279;Laerm;55108;51.790;10.960;2023-05-19T12:56:19;66.96;53.12;76.02;;
68279;Laerm;55108;51.790;10.960;2023-05-19T12:58:45;65.89;54.21;78.61;;
68279;Laerm;55108;51.790;10.960;2023-05-19T13:01:17;65.25;46.95;77.00;;
68279;Laerm;55108;51.790;10.960;2023-05-19T13:03:43;68.01;47.20;78.95;;
68279;Laerm;55108;51.790;10.960;2023-05-19T13:06:08;66.16;47.93;76.62;;
68279;Laerm;55108;51.790;10.960;2023-05-19T13:08:34;68.96;47.71;79.88;;
68279;Laerm;55108;51.790;10.960;2023-05-19T13:10:59;67.84;49.65;77.72;;
68279;Laerm;55108;51.790;10.960;2023-05-19T13:13:24;66.63;43.76;76.48;;
68279;Laerm;55108;51.790;10.960;2023-05-19T13:15:50;66.31;42.45;80.09;;
68279;Laerm;55108;51.790;10.960;2023-05-19T13:18:15;66.60;45.12;76.45;;
68279;Laerm;55108;51.790;10.960;2023-05-19T13:20:40;65.88;46.27;77.54;;
68279;Laerm;55108;51.790;10.960;2023-05-19T13:23:06;68.04;47.43;78.35;;
68279;Laerm;55108;51.790;10.960;2023-05-19T13:25:32;69.87;48.61;81.17;;
68279;Laerm;55108;51.790;10.960;2023-05-19T13:27:58;68.31;48.06;78.98;;
68279;Laerm;55108;51.790;10.960;2023-05-19T13:30:25;71.29;53.06;84.51;;
68279;Laerm;55108;51.790;10.960;2023-05-19T13:32:50;67.57;48.66;78.28;;
68279;Laerm;55108;51.790;10.960;2023-05-19T13:35:16;67.46;50.45;76.36;;
68279;Laerm;55108;51.790;10.960;2023-05-19T13:37:41;67.56;47.46;82.37;;
68279;Laerm;55108;51.790;10.960;2023-05-19T13:40:07;68.94;45.00;77.75;;
68279;Laerm;55108;51.790;10.960;2023-05-19T13:42:32;69.52;46.10;85.45;;
68279;Laerm;55108;51.790;10.960;2023-05-19T13:44:57;65.79;45.81;76.39;;
68279;Laerm;55108;51.790;10.960;2023-05-19T13:47:22;66.65;49.23;75.44;;
68279;Laerm;55108;51.790;10.960;2023-05-19T13:49:47;68.42;43.93;78.14;;
68279;Laerm;55108;51.790;10.960;2023-05-19T13:52:13;68.48;48.99;77.04;;
68279;Laerm;55108;51.790;10.960;2023-05-19T13:54:38;70.51;49.37;87.17;;
68279;Laerm;55108;51.790;10.960;2023-05-19T13:57:03;69.15;46.55;83.94;;
68279;Laerm;55108;51.790;10.960;2023-05-19T13:59:30;66.61;43.39;76.78;;